createdAt,value
2022-08-25T00:02:13.240Z,20.33
2022-08-25T00:04:40.324Z,20.17
2022-08-25T00:07:07.763Z,20.09
2022-08-25T00:09:35.402Z,20.18
2022-08-25T00:12:03.017Z,20.05
2022-08-25T00:14:33.780Z,19.87
2022-08-25T00:17:00.789Z,19.92
2022-08-25T00:19:32.070Z,19.90
2022-08-25T00:22:00.769Z,20.01
2022-08-25T00:24:27.803Z,20.04
2022-08-25T00:26:56.957Z,19.99
2022-08-25T00:29:26.045Z,19.84
2022-08-25T00:31:53.177Z,19.92
2022-08-25T00:34:24.189Z,19.60
2022-08-25T00:36:51.767Z,19.63
2022-08-25T00:39:20.977Z,19.68
2022-08-25T00:41:49.793Z,19.67
2022-08-25T00:44:19.853Z,19.77
2022-08-25T00:46:53.617Z,19.50
2022-08-25T00:49:24.849Z,19.38
2022-08-25T00:51:58.779Z,19.46
2022-08-25T00:54:30.879Z,19.32
2022-08-25T00:56:59.781Z,19.22
2022-08-25T00:59:27.594Z,19.26
2022-08-25T01:01:55.338Z,19.09
2022-08-25T01:04:21.866Z,18.92
2022-08-25T01:06:49.300Z,18.87
2022-08-25T01:09:17.092Z,18.89
2022-08-25T01:11:44.789Z,18.93
2022-08-25T01:14:14.765Z,18.99
2022-08-25T01:16:43.487Z,18.84
2022-08-25T01:19:15.226Z,18.73
2022-08-25T01:21:48.170Z,18.53
2022-08-25T01:24:44.902Z,18.46
2022-08-25T01:27:11.554Z,18.56
2022-08-25T01:29:38.504Z,18.77
2022-08-25T01:32:08.980Z,18.89
2022-08-25T01:34:38.306Z,18.83
2022-08-25T01:37:05.384Z,18.81
2022-08-25T01:39:36.794Z,18.88
2022-08-25T01:42:04.032Z,18.99
2022-08-25T01:44:31.757Z,19.08
2022-08-25T01:46:58.361Z,19.01
2022-08-25T01:49:24.807Z,18.95
2022-08-25T01:52:06.607Z,18.92
2022-08-25T01:54:33.417Z,18.78
2022-08-25T01:56:59.810Z,18.65
2022-08-25T01:59:27.291Z,18.45
2022-08-25T02:02:00.200Z,18.27
2022-08-25T02:04:31.959Z,18.27
2022-08-25T02:07:03.674Z,18.33
2022-08-25T02:09:30.193Z,18.39
2022-08-25T02:11:56.763Z,18.45
2022-08-25T02:14:24.004Z,18.53
2022-08-25T02:16:51.982Z,18.36
2022-08-25T02:19:19.879Z,18.51
2022-08-25T02:21:46.775Z,18.44
2022-08-25T02:24:13.655Z,18.28
2022-08-25T02:26:41.136Z,18.14
2022-08-25T02:29:08.194Z,18.13
2022-08-25T02:31:35.762Z,18.18
2022-08-25T02:34:02.750Z,18.00
2022-08-25T02:36:30.632Z,18.10
2022-08-25T02:38:57.089Z,17.96
2022-08-25T02:41:30.957Z,17.79
2022-08-25T02:43:59.014Z,17.94
2022-08-25T02:46:25.612Z,17.86
2022-08-25T02:48:53.294Z,17.79
2022-08-25T02:51:22.656Z,17.84
2022-08-25T02:53:49.972Z,17.75
2022-08-25T02:56:18.813Z,17.79
2022-08-25T02:58:46.322Z,17.71
2022-08-25T03:01:13.069Z,17.78
2022-08-25T03:03:40.784Z,17.83
2022-08-25T03:06:09.688Z,17.71
2022-08-25T03:08:37.529Z,17.53
2022-08-25T03:11:05.149Z,17.45
2022-08-25T03:13:32.674Z,17.53
2022-08-25T03:16:00.315Z,17.50
2022-08-25T03:18:27.487Z,17.43
2022-08-25T03:20:54.813Z,17.48
2022-08-25T03:23:21.244Z,17.62
2022-08-25T03:26:06.286Z,17.80
2022-08-25T03:28:33.226Z,17.67
2022-08-25T03:31:00.947Z,17.59
2022-08-25T03:33:29.305Z,17.46
2022-08-25T03:35:56.366Z,17.53
2022-08-25T03:38:25.231Z,17.47
2022-08-25T03:40:52.114Z,17.67
2022-08-25T03:43:19.400Z,17.37
2022-08-25T03:45:47.680Z,17.30
2022-08-25T03:48:15.176Z,17.21
2022-08-25T03:50:51.675Z,17.19
2022-08-25T03:53:19.486Z,17.38
2022-08-25T03:55:46.029Z,17.52
2022-08-25T03:58:12.591Z,17.62
2022-08-25T04:00:39.396Z,17.67
2022-08-25T04:03:05.987Z,17.76
2022-08-25T04:05:32.928Z,17.82
2022-08-25T04:08:01.797Z,17.90
2022-08-25T04:10:28.925Z,17.80
2022-08-25T04:12:56.057Z,17.52
2022-08-25T04:15:23.936Z,17.42
2022-08-25T04:17:58.696Z,17.33
2022-08-25T04:20:25.169Z,17.27
2022-08-25T04:22:51.639Z,17.32
2022-08-25T04:25:18.122Z,17.30
2022-08-25T04:27:44.539Z,17.19
2022-08-25T04:30:11.670Z,17.20
2022-08-25T04:32:38.076Z,17.97
2022-08-25T04:35:05.367Z,17.42
2022-08-25T04:37:32.426Z,17.26
2022-08-25T04:39:58.858Z,17.24
2022-08-25T04:42:26.913Z,17.26
2022-08-25T04:44:54.319Z,17.25
2022-08-25T04:47:20.784Z,17.20
2022-08-25T04:49:47.787Z,17.25
2022-08-25T04:52:14.737Z,17.20
2022-08-25T04:54:42.255Z,17.27
2022-08-25T04:57:09.480Z,17.15
2022-08-25T04:59:36.023Z,17.24
2022-08-25T05:02:03.291Z,17.33
2022-08-25T05:04:31.458Z,17.17
2022-08-25T05:06:58.589Z,17.28
2022-08-25T05:09:26.110Z,17.33
2022-08-25T05:11:53.576Z,17.42
2022-08-25T05:14:25.560Z,17.35
2022-08-25T05:16:53.296Z,17.59
2022-08-25T05:19:19.857Z,18.06
2022-08-25T05:21:46.298Z,18.48
2022-08-25T05:24:12.734Z,19.01
2022-08-25T05:26:39.683Z,19.45
2022-08-25T05:29:06.880Z,19.86
2022-08-25T05:31:36.397Z,20.27
2022-08-25T05:34:07.890Z,20.80
2022-08-25T05:36:35.222Z,21.17
2022-08-25T05:39:01.938Z,21.35
2022-08-25T05:41:30.333Z,21.37
2022-08-25T05:43:57.268Z,21.59
2022-08-25T05:46:24.451Z,21.65
2022-08-25T05:48:51.227Z,21.75
2022-08-25T05:51:18.911Z,21.88
2022-08-25T05:53:47.665Z,21.76
2022-08-25T05:56:14.361Z,21.89
2022-08-25T05:58:42.164Z,22.13
2022-08-25T06:01:28.934Z,22.05
2022-08-25T06:03:55.525Z,21.98
2022-08-25T06:06:24.429Z,21.68
2022-08-25T06:08:51.608Z,21.69
2022-08-25T06:11:18.211Z,21.62
2022-08-25T06:13:45.505Z,21.56
2022-08-25T06:16:11.969Z,21.59
2022-08-25T06:18:38.447Z,21.51
2022-08-25T06:21:12.809Z,21.46
2022-08-25T06:23:40.128Z,21.64
2022-08-25T06:26:07.460Z,21.59
2022-08-25T06:28:33.940Z,21.71
2022-08-25T06:31:02.160Z,21.50
2022-08-25T06:33:29.137Z,21.59
2022-08-25T06:35:56.460Z,21.80
2022-08-25T06:38:23.537Z,22.01
2022-08-25T06:40:52.009Z,21.81
2022-08-25T06:43:20.092Z,22.14
2022-08-25T06:45:46.570Z,22.06
2022-08-25T06:48:13.091Z,21.99
2022-08-25T06:50:40.203Z,22.55
2022-08-25T06:53:06.719Z,22.52
2022-08-25T06:55:35.064Z,22.42
2022-08-25T06:58:03.423Z,22.31
2022-08-25T07:00:32.113Z,22.52
2022-08-25T07:03:01.006Z,22.49
2022-08-25T07:05:42.621Z,22.69
2022-08-25T07:08:11.623Z,22.94
2022-08-25T07:10:38.091Z,22.97
2022-08-25T07:13:04.499Z,22.90
2022-08-25T07:15:30.905Z,23.18
2022-08-25T07:17:57.692Z,23.37
2022-08-25T07:22:52.249Z,23.79
2022-08-25T07:25:18.907Z,23.86
2022-08-25T07:27:45.857Z,23.72
2022-08-25T07:30:12.333Z,23.92
2022-08-25T07:32:42.279Z,24.15
2022-08-25T07:35:27.303Z,24.29
2022-08-25T07:38:06.603Z,24.64
2022-08-25T07:40:37.487Z,24.93
2022-08-25T07:43:09.460Z,25.32
2022-08-25T07:45:46.882Z,25.34
2022-08-25T07:48:19.595Z,25.58
2022-08-25T07:50:47.121Z,25.71
2022-08-25T07:53:15.769Z,25.60
2022-08-25T07:55:45.129Z,25.90
2022-08-25T07:58:13.782Z,25.75
2022-08-25T08:00:42.384Z,25.87
2022-08-25T08:03:12.903Z,26.17
2022-08-25T08:05:46.736Z,25.97
2022-08-25T08:08:16.340Z,26.15
2022-08-25T08:11:03.183Z,26.21
2022-08-25T08:13:34.862Z,26.49
2022-08-25T08:16:09.278Z,26.60
2022-08-25T08:18:35.784Z,26.46
2022-08-25T08:21:02.224Z,26.78
2022-08-25T08:23:30.481Z,26.95
2022-08-25T08:25:57.135Z,26.69
2022-08-25T08:28:27.736Z,27.12
2022-08-25T08:30:54.218Z,27.27
2022-08-25T08:33:23.751Z,27.01
2022-08-25T08:36:09.723Z,27.45
2022-08-25T08:38:37.918Z,27.55
2022-08-25T08:42:09.408Z,27.24
2022-08-25T08:45:02.597Z,27.37
2022-08-25T08:47:56.470Z,27.50
2022-08-25T08:50:32.928Z,27.64
2022-08-25T08:53:16.472Z,27.51
2022-08-25T08:55:53.503Z,27.67
2022-08-25T08:58:26.222Z,27.63
2022-08-25T09:00:58.182Z,27.74
2022-08-25T09:03:29.662Z,27.87
2022-08-25T09:05:59.191Z,27.63
2022-08-25T09:08:26.716Z,28.07
2022-08-25T09:11:23.039Z,28.41
2022-08-25T09:14:18.583Z,28.39
2022-08-25T09:17:01.145Z,28.51
2022-08-25T09:19:41.769Z,28.32
2022-08-25T09:22:33.508Z,28.51
2022-08-25T09:25:10.431Z,28.44
2022-08-25T09:28:03.771Z,28.74
2022-08-25T09:30:58.972Z,28.78
2022-08-25T09:33:28.498Z,28.65
2022-08-25T09:35:57.516Z,28.37
2022-08-25T09:38:26.185Z,28.21
2022-08-25T09:40:56.073Z,28.74
2022-08-25T09:43:31.850Z,28.57
2022-08-25T09:46:02.479Z,28.69
2022-08-25T09:48:40.683Z,28.67
2022-08-25T09:51:42.359Z,28.76
2022-08-25T09:54:18.278Z,28.43
2022-08-25T09:56:55.519Z,28.38
2022-08-25T09:59:36.034Z,28.55
2022-08-25T10:02:23.816Z,28.70
2022-08-25T10:04:50.398Z,29.40
2022-08-25T10:07:30.433Z,29.20
2022-08-25T10:10:04.521Z,29.19
2022-08-25T10:12:42.466Z,29.62
2022-08-25T10:15:31.843Z,29.78
2022-08-25T10:18:21.946Z,29.51
2022-08-25T10:21:15.053Z,29.50
2022-08-25T10:23:49.537Z,28.97
2022-08-25T10:26:36.970Z,29.37
2022-08-25T10:29:22.979Z,29.86
2022-08-25T10:32:11.940Z,29.25
2022-08-25T10:34:51.769Z,29.60
2022-08-25T10:37:44.846Z,29.32
2022-08-25T10:40:46.083Z,29.82
2022-08-25T10:43:31.392Z,30.12
2022-08-25T10:46:13.487Z,29.67
2022-08-25T10:49:02.554Z,29.73
2022-08-25T10:51:41.481Z,29.56
2022-08-25T10:54:15.946Z,29.41
2022-08-25T10:56:49.435Z,29.50
2022-08-25T10:59:25.365Z,29.87
2022-08-25T11:02:15.195Z,30.17
2022-08-25T11:04:52.712Z,30.07
2022-08-25T11:07:27.177Z,29.98
2022-08-25T11:09:59.699Z,30.13
2022-08-25T11:13:00.976Z,30.28
2022-08-25T11:15:36.873Z,30.40
2022-08-25T11:18:14.482Z,30.38
2022-08-25T11:21:16.459Z,30.18
2022-08-25T11:24:09.156Z,30.34
2022-08-25T11:26:37.784Z,30.71
2022-08-25T11:29:14.328Z,30.13
2022-08-25T11:31:52.236Z,30.36
2022-08-25T11:34:21.401Z,30.63
2022-08-25T11:37:03.844Z,30.71
2022-08-25T11:39:51.771Z,30.87
2022-08-25T11:42:45.732Z,30.98
2022-08-25T11:45:39.901Z,30.90
2022-08-25T11:48:30.017Z,31.07
2022-08-25T11:51:12.408Z,31.15
2022-08-25T11:53:42.405Z,30.33
2022-08-25T11:56:32.677Z,30.17
2022-08-25T11:58:59.298Z,30.69
2022-08-25T12:01:51.755Z,30.90
2022-08-25T12:04:44.301Z,30.73
2022-08-25T12:07:14.861Z,31.12
2022-08-25T12:09:50.297Z,31.12
2022-08-25T12:12:41.653Z,30.70
2022-08-25T12:15:14.721Z,31.14
2022-08-25T12:17:41.490Z,30.88
2022-08-25T12:20:08.478Z,30.46
2022-08-25T12:22:34.980Z,30.60
2022-08-25T12:25:11.545Z,30.43
2022-08-25T12:28:00.795Z,30.59
2022-08-25T12:30:50.633Z,30.64
2022-08-25T12:33:31.714Z,30.95
2022-08-25T12:36:11.173Z,31.39
2022-08-25T12:38:47.318Z,31.66
2022-08-25T12:41:22.382Z,31.38
2022-08-25T12:43:54.274Z,31.09
2022-08-25T12:46:25.561Z,30.85
2022-08-25T12:49:11.461Z,30.59
2022-08-25T12:52:12.963Z,30.90
2022-08-25T12:54:49.052Z,30.66
2022-08-25T12:57:36.653Z,30.86
2022-08-25T13:00:16.772Z,30.75
2022-08-25T13:02:57.289Z,31.07
2022-08-25T13:05:58.297Z,30.78
2022-08-25T13:08:59.229Z,31.27
2022-08-25T13:11:39.896Z,31.95
2022-08-25T13:14:26.689Z,32.13
2022-08-25T13:16:59.126Z,31.94
2022-08-25T13:19:27.271Z,31.70
2022-08-25T13:22:04.299Z,31.60
2022-08-25T13:24:40.662Z,31.33
2022-08-25T13:27:10.570Z,31.35
2022-08-25T13:29:52.069Z,31.01
2022-08-25T13:32:32.082Z,31.12
2022-08-25T13:35:22.011Z,31.45
2022-08-25T13:37:48.910Z,31.34
2022-08-25T13:40:25.901Z,31.54
2022-08-25T13:43:06.658Z,31.18
2022-08-25T13:45:42.036Z,31.40
2022-08-25T13:48:22.537Z,31.59
2022-08-25T13:50:52.015Z,31.67
2022-08-25T13:53:25.497Z,31.95
2022-08-25T13:55:57.105Z,31.60
2022-08-25T13:58:39.006Z,31.85
2022-08-25T14:01:19.983Z,32.10
2022-08-25T14:03:51.361Z,32.17
2022-08-25T14:06:17.685Z,32.35
2022-08-25T14:08:59.299Z,32.74
2022-08-25T14:11:44.022Z,32.18
2022-08-25T14:14:14.629Z,31.95
2022-08-25T14:16:49.777Z,31.96
2022-08-25T14:19:20.053Z,32.01
2022-08-25T14:21:47.418Z,32.14
2022-08-25T14:24:18.439Z,32.11
2022-08-25T14:26:54.097Z,32.11
2022-08-25T14:29:22.086Z,31.87
2022-08-25T14:31:49.061Z,31.98
2022-08-25T14:34:25.593Z,31.89
2022-08-25T14:36:55.889Z,31.80
2022-08-25T14:39:22.578Z,31.46
2022-08-25T14:41:52.598Z,31.57
2022-08-25T14:44:20.107Z,31.49
2022-08-25T14:46:51.968Z,31.43
2022-08-25T14:49:24.652Z,31.85
2022-08-25T14:51:51.730Z,31.55
2022-08-25T14:54:23.372Z,31.74
2022-08-25T14:56:49.852Z,31.64
2022-08-25T14:59:16.970Z,31.35
2022-08-25T15:01:43.638Z,31.57
2022-08-25T15:04:17.634Z,31.53
2022-08-25T15:06:45.069Z,31.86
2022-08-25T15:09:16.119Z,32.02
2022-08-25T15:11:45.338Z,32.16
2022-08-25T15:14:15.406Z,32.18
2022-08-25T15:16:49.342Z,32.19
2022-08-25T15:19:18.441Z,32.16
2022-08-25T15:21:46.968Z,32.12
2022-08-25T15:24:17.722Z,32.17
2022-08-25T15:29:25.404Z,31.72
2022-08-25T15:31:51.901Z,31.68
2022-08-25T15:34:19.342Z,31.68
2022-08-25T15:36:46.582Z,31.59
2022-08-25T15:39:14.574Z,31.46
2022-08-25T15:41:42.632Z,31.71
2022-08-25T15:44:11.366Z,31.58
2022-08-25T15:46:40.579Z,31.54
2022-08-25T15:49:07.898Z,31.62
2022-08-25T15:51:34.832Z,31.61
2022-08-25T15:54:01.245Z,31.85
2022-08-25T15:56:27.703Z,32.24
2022-08-25T15:58:55.386Z,31.99
2022-08-25T16:01:24.907Z,31.78
2022-08-25T16:03:52.140Z,31.66
2022-08-25T16:06:18.906Z,31.75
2022-08-25T16:08:45.497Z,31.87
2022-08-25T16:11:31.440Z,31.85
2022-08-25T16:13:58.351Z,31.73
2022-08-25T16:16:28.557Z,31.40
2022-08-25T16:18:56.287Z,31.37
2022-08-25T16:21:29.052Z,31.24
2022-08-25T16:24:00.329Z,31.47
2022-08-25T16:26:30.428Z,31.64
2022-08-25T16:28:57.089Z,31.45
2022-08-25T16:31:24.730Z,31.59
2022-08-25T16:33:54.715Z,31.80
2022-08-25T16:36:27.226Z,31.60
2022-08-25T16:38:56.026Z,31.67
2022-08-25T16:41:25.568Z,31.31
2022-08-25T16:43:52.215Z,31.14
2022-08-25T16:46:20.815Z,31.11
2022-08-25T16:48:48.705Z,31.17
2022-08-25T16:51:19.384Z,31.07
2022-08-25T16:54:07.853Z,31.13
2022-08-25T16:56:37.057Z,31.05
2022-08-25T16:59:06.305Z,31.14
2022-08-25T17:01:34.025Z,31.17
2022-08-25T17:04:01.897Z,31.08
2022-08-25T17:06:30.104Z,31.11
2022-08-25T17:08:56.765Z,31.22
2022-08-25T17:11:30.576Z,31.21
2022-08-25T17:14:00.919Z,31.13
2022-08-25T17:16:32.466Z,31.03
2022-08-25T17:19:06.833Z,31.01
2022-08-25T17:21:36.896Z,31.11
2022-08-25T17:24:05.035Z,31.11
2022-08-25T17:26:32.043Z,30.90
2022-08-25T17:29:01.061Z,30.86
2022-08-25T17:31:29.973Z,30.82
2022-08-25T17:33:57.811Z,30.85
2022-08-25T17:36:26.884Z,31.04
2022-08-25T17:38:54.446Z,30.97
2022-08-25T17:41:20.954Z,30.77
2022-08-25T17:43:47.650Z,30.83
2022-08-25T17:46:15.111Z,30.91
2022-08-25T17:48:43.721Z,30.77
2022-08-25T17:51:10.776Z,30.60
2022-08-25T17:53:38.443Z,30.55
2022-08-25T17:56:10.695Z,30.47
2022-08-25T17:58:38.190Z,30.35
2022-08-25T18:01:05.526Z,30.19
2022-08-25T18:03:33.114Z,29.99
2022-08-25T18:06:00.302Z,29.89
2022-08-25T18:08:35.195Z,29.66
2022-08-25T18:11:03.310Z,29.30
2022-08-25T18:13:31.181Z,29.04
2022-08-25T18:15:58.057Z,29.00
2022-08-25T18:18:24.476Z,28.79
2022-08-25T18:20:51.033Z,28.76
2022-08-25T18:23:19.522Z,28.66
2022-08-25T18:25:49.150Z,28.44
2022-08-25T18:28:16.086Z,28.40
2022-08-25T18:30:43.172Z,28.35
2022-08-25T18:33:10.285Z,28.48
2022-08-25T18:35:36.836Z,28.31
2022-08-25T18:38:24.078Z,28.32
2022-08-25T18:40:58.980Z,28.22
2022-08-25T18:43:26.374Z,28.10
2022-08-25T18:45:52.837Z,28.07
2022-08-25T18:48:20.483Z,27.97
2022-08-25T18:50:47.732Z,27.95
2022-08-25T18:53:19.108Z,27.93
2022-08-25T18:55:58.078Z,27.81
2022-08-25T18:58:25.981Z,27.80
2022-08-25T19:00:52.645Z,27.63
2022-08-25T19:03:22.272Z,27.47
2022-08-25T19:05:57.420Z,27.33
2022-08-25T19:08:24.973Z,27.31
2022-08-25T19:10:53.526Z,27.20
2022-08-25T19:13:22.552Z,27.08
2022-08-25T19:15:51.393Z,27.02
2022-08-25T19:18:19.410Z,27.01
2022-08-25T19:20:55.426Z,26.92
2022-08-25T19:23:21.845Z,26.89
2022-08-25T19:25:48.296Z,26.67
2022-08-25T19:28:14.742Z,26.52
2022-08-25T19:30:50.138Z,26.89
2022-08-25T19:33:42.366Z,26.71
2022-08-25T19:36:06.307Z,26.94
2022-08-25T19:38:36.095Z,26.74
2022-08-25T19:41:09.381Z,26.40
2022-08-25T19:43:56.706Z,26.39
2022-08-25T19:46:32.740Z,26.48
2022-08-25T19:49:09.013Z,26.47
2022-08-25T19:51:44.306Z,26.24
2022-08-25T19:54:13.745Z,26.30
2022-08-25T19:56:53.715Z,26.20
2022-08-25T19:59:22.505Z,26.21
2022-08-25T20:01:49.791Z,26.07
2022-08-25T20:04:16.372Z,26.11
2022-08-25T20:06:42.970Z,26.16
2022-08-25T20:09:35.743Z,26.01
2022-08-25T20:12:01.308Z,25.99
2022-08-25T20:14:29.039Z,25.95
2022-08-25T20:16:55.535Z,25.88
2022-08-25T20:19:21.970Z,25.74
2022-08-25T20:21:48.460Z,25.65
2022-08-25T20:24:33.270Z,25.49
2022-08-25T20:27:00.299Z,25.31
2022-08-25T20:29:26.749Z,25.18
2022-08-25T20:31:53.329Z,25.14
2022-08-25T20:34:19.760Z,24.97
2022-08-25T20:36:49.889Z,24.85
2022-08-25T20:39:17.786Z,24.72
2022-08-25T20:41:45.301Z,24.64
2022-08-25T20:44:15.615Z,24.59
2022-08-25T20:46:42.082Z,24.50
2022-08-25T20:49:09.047Z,24.34
2022-08-25T20:51:35.522Z,24.57
2022-08-25T20:54:02.044Z,24.50
2022-08-25T20:56:30.448Z,24.40
2022-08-25T20:58:56.916Z,24.29
2022-08-25T21:01:39.701Z,24.20
2022-08-25T21:04:14.451Z,24.07
2022-08-25T21:06:41.503Z,24.01
2022-08-25T21:09:15.909Z,24.06
2022-08-25T21:11:45.032Z,23.93
2022-08-25T21:14:12.757Z,24.02
2022-08-25T21:16:40.827Z,23.96
2022-08-25T21:19:09.059Z,23.99
2022-08-25T21:21:38.220Z,23.85
2022-08-25T21:24:09.794Z,23.94
2022-08-25T21:26:48.808Z,23.85
2022-08-25T21:29:16.583Z,23.93
2022-08-25T21:31:43.108Z,23.85
2022-08-25T21:34:11.378Z,23.81
2022-08-25T21:36:39.465Z,23.64
2022-08-25T21:39:06.237Z,23.45
2022-08-25T21:41:35.243Z,23.30
2022-08-25T21:44:03.763Z,23.38
2022-08-25T21:46:32.394Z,23.27
2022-08-25T21:49:00.573Z,22.96
2022-08-25T21:51:40.615Z,23.15
2022-08-25T21:54:11.907Z,22.90
2022-08-25T21:57:02.532Z,22.97
2022-08-25T21:59:32.358Z,22.88
2022-08-25T22:02:02.096Z,22.89
2022-08-25T22:04:30.010Z,22.98
2022-08-25T22:06:58.034Z,22.87
2022-08-25T22:09:25.219Z,22.60
2022-08-25T22:11:53.154Z,22.73
2022-08-25T22:14:23.370Z,22.74
2022-08-25T22:16:50.456Z,22.74
2022-08-25T22:19:17.338Z,22.81
2022-08-25T22:21:44.643Z,22.66
2022-08-25T22:24:11.858Z,22.65
2022-08-25T22:26:39.136Z,22.60
2022-08-25T22:29:06.298Z,22.41
2022-08-25T22:31:33.762Z,22.20
2022-08-25T22:34:01.003Z,22.04
2022-08-25T22:36:34.380Z,21.96
2022-08-25T22:39:02.121Z,22.01
2022-08-25T22:41:30.093Z,21.99
2022-08-25T22:43:57.673Z,22.24
2022-08-25T22:46:26.422Z,22.13
2022-08-25T22:48:55.432Z,22.23
2022-08-25T22:51:25.198Z,22.15
2022-08-25T22:53:51.859Z,21.80
2022-08-25T22:56:29.649Z,21.70
2022-08-25T22:59:01.293Z,21.65
2022-08-25T23:01:27.919Z,21.53
2022-08-25T23:03:54.694Z,21.42
2022-08-25T23:06:24.713Z,21.40
2022-08-25T23:08:53.569Z,21.39
2022-08-25T23:11:21.672Z,21.61
2022-08-25T23:13:49.096Z,21.38
2022-08-25T23:16:16.968Z,21.29
2022-08-25T23:18:47.042Z,21.39
2022-08-25T23:21:35.318Z,21.28
2022-08-25T23:24:07.595Z,21.20
2022-08-25T23:26:34.811Z,21.19
2022-08-25T23:29:03.203Z,21.26
2022-08-25T23:31:34.417Z,21.07
2022-08-25T23:34:00.897Z,21.12
2022-08-25T23:36:29.347Z,21.20
2022-08-25T23:38:56.198Z,21.34
2022-08-25T23:41:24.589Z,21.14
2022-08-25T23:43:51.619Z,20.97
2022-08-25T23:46:21.699Z,20.94
2022-08-25T23:48:49.007Z,20.87
2022-08-25T23:51:23.909Z,20.90
2022-08-25T23:53:50.779Z,20.85
2022-08-25T23:56:17.306Z,20.64
2022-08-25T23:58:43.917Z,20.61
